Main page
Satellite images 10-day forecastsClimateMarine weather Cyclones Lightning AirportsFAQ Newsletter About
Weather : Europe Africa North America South America Asia Australia-Oceania Others
Languages Contact

Warsaw, Poland

Warsaw Chopin Airport

latitude: 52-10N, longitude: 020-58E, elevation: 106 m


METAR: EPWA 050400Z VRB01KT CAVOK 19/14 Q1019 NOSIG
TAF: EPWA 042330Z 0500/0524 VRB02KT CAVOK

Time: 06:23 (04:23 UTC)

Current weather observation

The report was made 23 minutes ago, at 04:00 UTC
Wind 1 kt from variable directions
Temperature 19°C
Humidity 73%
Pressure 1019 hPa
Visibility 10 km or more
no clouds below 1500 m and no cumulonimbus

Change units

Forecast

The report was made 4 hours and 53 minutes ago, at 23:30 UTC
Forecast valid from 05 at 00 UTC to 05 at 24 UTC
Wind 2 kt from variable directions
Visibility 10 km or more
no clouds below 1500 m and no cumulonimbus
The information on this site is subject to a disclaimer
Weather : Europe Africa North America South America Asia Australia-Oceania Others
Satellite images 10-day forecastsClimateMarine weather Cyclones Lightning AirportsFAQ Languages Contact Newsletter About